createdAt,value
2022-10-04T00:01:24.950Z,11.10
2022-10-04T00:04:10.581Z,11.10
2022-10-04T00:06:38.234Z,11.10
2022-10-04T00:09:05.026Z,11.10
2022-10-04T00:11:36.007Z,11.00
2022-10-04T00:14:23.009Z,11.00
2022-10-04T00:16:50.041Z,11.00
2022-10-04T00:19:19.841Z,11.00
2022-10-04T00:21:53.413Z,10.90
2022-10-04T00:24:24.623Z,11.00
2022-10-04T00:26:51.385Z,11.00
2022-10-04T00:29:35.612Z,10.90
2022-10-04T00:32:08.410Z,11.00
2022-10-04T00:34:35.194Z,10.90
2022-10-04T00:37:13.477Z,10.90
2022-10-04T00:39:44.868Z,10.80
2022-10-04T00:42:17.670Z,10.80
2022-10-04T00:44:51.481Z,10.80
2022-10-04T00:47:21.337Z,10.80
2022-10-04T00:49:50.159Z,10.80
2022-10-04T00:52:20.987Z,10.80
2022-10-04T00:54:51.286Z,10.80
2022-10-04T00:57:22.024Z,10.70
2022-10-04T00:59:50.716Z,10.70
2022-10-04T01:02:26.947Z,10.70
2022-10-04T01:04:53.789Z,10.70
2022-10-04T01:07:24.188Z,10.70
2022-10-04T01:09:57.400Z,10.70
2022-10-04T01:12:36.517Z,10.70
2022-10-04T01:15:08.857Z,10.70
2022-10-04T01:17:35.741Z,10.60
2022-10-04T01:20:02.839Z,10.60
2022-10-04T01:22:35.418Z,10.60
2022-10-04T01:25:02.865Z,10.60
2022-10-04T01:27:33.031Z,10.60
2022-10-04T01:30:00.623Z,10.50
2022-10-04T01:32:27.499Z,10.50
2022-10-04T01:34:55.688Z,10.50
2022-10-04T01:37:22.508Z,10.50
2022-10-04T01:39:49.260Z,10.50
2022-10-04T01:42:18.781Z,10.40
2022-10-04T01:44:48.925Z,10.50
2022-10-04T01:47:27.863Z,10.50
2022-10-04T01:49:57.835Z,10.40
2022-10-04T01:52:30.588Z,10.50
2022-10-04T01:55:09.653Z,10.40
2022-10-04T01:57:47.634Z,10.40
2022-10-04T02:00:14.739Z,10.40
2022-10-04T02:02:44.611Z,10.40
2022-10-04T02:05:13.057Z,10.40
2022-10-04T02:07:40.870Z,10.40
2022-10-04T02:10:13.148Z,10.40
2022-10-04T02:12:43.741Z,10.40
2022-10-04T02:15:11.536Z,10.40
2022-10-04T02:17:39.936Z,10.40
2022-10-04T02:20:11.759Z,10.30
2022-10-04T02:22:38.660Z,10.30
2022-10-04T02:25:06.006Z,10.30
2022-10-04T02:27:33.242Z,10.30
2022-10-04T02:30:00.756Z,10.30
2022-10-04T02:32:48.333Z,10.30
2022-10-04T02:35:15.830Z,10.30
2022-10-04T02:37:42.679Z,10.30
2022-10-04T02:40:12.791Z,10.30
2022-10-04T02:42:47.123Z,10.30
2022-10-04T02:45:13.892Z,10.30
2022-10-04T02:47:44.521Z,10.20
2022-10-04T02:50:31.686Z,10.20
2022-10-04T02:53:01.452Z,10.20
2022-10-04T02:55:30.819Z,10.20
2022-10-04T02:57:58.478Z,10.10
2022-10-04T03:00:25.257Z,10.20
2022-10-04T03:03:10.936Z,10.10
2022-10-04T03:05:38.506Z,10.10
2022-10-04T03:08:05.610Z,10.10
2022-10-04T03:10:32.752Z,10.10
2022-10-04T03:12:59.541Z,10.10
2022-10-04T03:15:26.728Z,10.00
2022-10-04T03:17:53.566Z,10.00
2022-10-04T03:20:21.324Z,10.00
2022-10-04T03:22:55.477Z,10.00
2022-10-04T03:25:26.239Z,9.90
2022-10-04T03:27:59.534Z,9.90
2022-10-04T03:30:26.411Z,9.90
2022-10-04T03:32:53.607Z,9.90
2022-10-04T03:35:28.599Z,9.90
2022-10-04T03:37:56.913Z,9.90
2022-10-04T03:40:27.351Z,9.90
2022-10-04T03:42:55.025Z,10.00
2022-10-04T03:45:23.574Z,10.10
2022-10-04T03:47:51.579Z,10.10
2022-10-04T03:50:18.358Z,10.20
2022-10-04T03:52:50.786Z,10.20
2022-10-04T03:55:18.514Z,10.20
2022-10-04T03:57:45.819Z,10.20
2022-10-04T04:00:18.715Z,10.20
2022-10-04T04:02:50.056Z,10.20
2022-10-04T04:05:26.232Z,10.20
2022-10-04T04:08:02.244Z,10.30
2022-10-04T04:10:31.003Z,10.30
2022-10-04T04:13:00.929Z,10.30
2022-10-04T04:15:29.839Z,10.20
2022-10-04T04:17:58.474Z,10.20
2022-10-04T04:20:27.410Z,10.20
2022-10-04T04:23:13.055Z,10.30
2022-10-04T04:25:41.217Z,10.30
2022-10-04T04:28:15.657Z,10.30
2022-10-04T04:30:47.579Z,10.30
2022-10-04T04:33:21.897Z,10.40
2022-10-04T04:35:53.642Z,10.40
2022-10-04T04:38:24.877Z,10.40
2022-10-04T04:40:55.771Z,10.40
2022-10-04T04:43:25.660Z,10.50
2022-10-04T04:46:15.035Z,10.50
2022-10-04T04:48:43.411Z,10.50
2022-10-04T04:51:13.724Z,10.50
2022-10-04T04:53:42.711Z,10.50
2022-10-04T04:56:12.067Z,10.50
2022-10-04T04:58:43.550Z,10.60
2022-10-04T05:01:16.646Z,10.50
2022-10-04T05:03:43.468Z,10.50
2022-10-04T05:06:24.810Z,10.50
2022-10-04T05:08:51.640Z,10.50
2022-10-04T05:11:19.996Z,10.40
2022-10-04T05:13:53.066Z,10.40
2022-10-04T05:16:23.452Z,10.40
2022-10-04T05:19:05.755Z,10.30
2022-10-04T05:21:34.493Z,10.30
2022-10-04T05:24:12.706Z,10.30
2022-10-04T05:26:41.456Z,10.30
2022-10-04T05:29:10.320Z,10.30
2022-10-04T05:31:56.333Z,10.30
2022-10-04T05:34:25.133Z,10.20
2022-10-04T05:36:55.732Z,10.20
2022-10-04T05:39:28.795Z,10.20
2022-10-04T05:42:07.843Z,10.20
2022-10-04T05:44:45.993Z,10.20
2022-10-04T05:47:14.513Z,10.20
2022-10-04T05:49:44.083Z,10.20
2022-10-04T05:52:14.676Z,10.10
2022-10-04T05:54:41.540Z,10.10
2022-10-04T05:57:28.785Z,10.20
2022-10-04T06:00:07.002Z,10.20
2022-10-04T06:02:57.882Z,10.20
2022-10-04T06:06:00.297Z,10.30
2022-10-04T06:08:35.955Z,10.30
2022-10-04T06:11:19.199Z,10.30
2022-10-04T06:13:55.353Z,10.40
2022-10-04T06:16:39.792Z,10.40
2022-10-04T06:19:25.432Z,10.40
2022-10-04T06:22:07.296Z,10.50
2022-10-04T06:24:38.408Z,10.60
2022-10-04T06:27:18.136Z,10.60
2022-10-04T06:29:49.697Z,10.70
2022-10-04T06:32:16.544Z,10.70
2022-10-04T06:34:55.651Z,10.80
2022-10-04T06:37:25.444Z,10.90
2022-10-04T06:39:55.307Z,11.00
2022-10-04T06:42:38.172Z,11.00
2022-10-04T06:45:12.574Z,11.10
2022-10-04T06:47:48.710Z,11.20
2022-10-04T06:50:18.612Z,11.20
2022-10-04T06:52:51.910Z,11.30
2022-10-04T06:55:18.646Z,11.40
2022-10-04T06:58:08.568Z,11.50
2022-10-04T07:00:55.771Z,11.50
2022-10-04T07:03:26.595Z,11.70
2022-10-04T07:05:55.429Z,11.90
2022-10-04T07:08:31.846Z,12.20
2022-10-04T07:11:02.401Z,12.50
2022-10-04T07:13:40.398Z,12.60
2022-10-04T07:16:17.573Z,12.70
2022-10-04T07:18:56.809Z,12.90
2022-10-04T07:21:26.295Z,13.10
2022-10-04T07:23:56.375Z,13.10
2022-10-04T07:26:41.817Z,12.90
2022-10-04T07:29:22.825Z,12.80
2022-10-04T07:31:53.592Z,12.80
2022-10-04T07:34:28.780Z,12.70
2022-10-04T07:36:57.299Z,12.70
2022-10-04T07:39:33.713Z,12.70
2022-10-04T07:42:08.211Z,12.80
2022-10-04T07:44:40.394Z,12.90
2022-10-04T07:47:18.537Z,13.00
2022-10-04T07:49:45.425Z,13.10
2022-10-04T07:52:28.008Z,13.10
2022-10-04T07:55:10.141Z,13.10
2022-10-04T07:57:36.898Z,13.10
2022-10-04T08:00:11.323Z,13.10
2022-10-04T08:03:01.308Z,13.20
2022-10-04T08:05:34.770Z,13.30
2022-10-04T08:08:07.591Z,13.40
2022-10-04T08:10:37.479Z,13.40
2022-10-04T08:13:26.157Z,13.50
2022-10-04T08:15:53.153Z,13.60
2022-10-04T08:18:29.261Z,13.90
2022-10-04T08:20:56.082Z,14.00
2022-10-04T08:23:41.750Z,14.10
2022-10-04T08:26:14.681Z,14.30
2022-10-04T08:29:18.966Z,14.40
2022-10-04T08:31:50.000Z,14.50
2022-10-04T08:34:35.547Z,14.60
2022-10-04T08:37:03.185Z,14.70
2022-10-04T08:39:30.058Z,14.80
2022-10-04T08:42:20.463Z,14.80
2022-10-04T08:44:53.487Z,15.00
2022-10-04T08:47:29.906Z,15.10
2022-10-04T08:50:19.658Z,15.10
2022-10-04T08:52:49.692Z,15.20
2022-10-04T08:55:28.633Z,15.20
2022-10-04T08:58:02.443Z,15.30
2022-10-04T09:00:46.903Z,15.40
2022-10-04T09:03:29.083Z,15.40
2022-10-04T09:06:06.632Z,15.50
2022-10-04T09:08:36.790Z,15.60
2022-10-04T09:11:21.923Z,15.80
2022-10-04T09:13:48.767Z,15.90
2022-10-04T09:16:17.700Z,16.00
2022-10-04T09:18:51.371Z,16.00
2022-10-04T09:21:27.828Z,15.90
2022-10-04T09:23:58.045Z,15.90
2022-10-04T09:26:32.398Z,15.90
2022-10-04T09:29:04.581Z,16.10
2022-10-04T09:31:31.859Z,16.20
2022-10-04T09:34:14.241Z,16.40
2022-10-04T09:36:51.027Z,16.50
2022-10-04T09:39:41.217Z,16.80
2022-10-04T09:42:31.414Z,17.00
2022-10-04T09:44:58.556Z,17.20
2022-10-04T09:47:31.892Z,17.30
2022-10-04T09:50:01.714Z,17.10
2022-10-04T09:52:48.939Z,17.00
2022-10-04T09:55:18.835Z,17.00
2022-10-04T09:57:53.602Z,16.90
2022-10-04T10:00:26.156Z,16.80
2022-10-04T10:02:55.515Z,16.70
2022-10-04T10:05:25.413Z,16.70
2022-10-04T10:08:05.685Z,16.70
2022-10-04T10:11:06.767Z,16.60
2022-10-04T10:13:52.371Z,16.60
2022-10-04T10:16:29.917Z,16.60
2022-10-04T10:19:03.026Z,16.60
2022-10-04T10:21:32.827Z,16.50
2022-10-04T10:24:18.951Z,16.50
2022-10-04T10:26:50.057Z,16.40
2022-10-04T10:29:35.241Z,16.30
2022-10-04T10:32:20.971Z,16.20
2022-10-04T10:34:53.888Z,16.10
2022-10-04T10:37:30.951Z,16.00
2022-10-04T10:40:23.832Z,16.00
2022-10-04T10:42:50.591Z,15.90
2022-10-04T10:45:21.230Z,15.90
2022-10-04T10:47:48.244Z,15.90
2022-10-04T10:50:15.019Z,15.90
2022-10-04T10:52:54.713Z,15.90
2022-10-04T10:55:34.411Z,15.90
2022-10-04T10:58:20.844Z,16.00
2022-10-04T11:00:59.989Z,16.00
2022-10-04T11:03:33.101Z,16.10
2022-10-04T11:06:06.245Z,16.10
2022-10-04T11:08:39.437Z,16.10
2022-10-04T11:11:15.651Z,16.20
2022-10-04T11:13:54.999Z,16.30
2022-10-04T11:16:54.460Z,16.30
2022-10-04T11:19:30.328Z,16.40
2022-10-04T11:22:09.414Z,16.50
2022-10-04T11:24:55.342Z,16.60
2022-10-04T11:27:47.809Z,16.60
2022-10-04T11:30:23.516Z,16.70
2022-10-04T11:33:09.568Z,16.80
2022-10-04T11:35:46.231Z,16.80
2022-10-04T11:38:32.028Z,16.90
2022-10-04T11:41:07.286Z,17.00
2022-10-04T11:43:42.515Z,17.20
2022-10-04T11:46:36.187Z,17.30
2022-10-04T11:49:12.252Z,17.40
2022-10-04T11:51:47.761Z,17.40
2022-10-04T11:54:18.147Z,17.40
2022-10-04T11:57:06.907Z,17.40
2022-10-04T11:59:43.406Z,17.50
2022-10-04T12:02:10.349Z,17.50
2022-10-04T12:04:58.863Z,17.50
2022-10-04T12:07:44.086Z,17.40
2022-10-04T12:10:11.044Z,17.40
2022-10-04T12:12:37.855Z,17.40
2022-10-04T12:15:20.372Z,17.40
2022-10-04T12:17:51.424Z,17.40
2022-10-04T12:20:33.562Z,17.40
2022-10-04T12:23:06.552Z,17.40
2022-10-04T12:25:47.103Z,17.50
2022-10-04T12:28:37.497Z,17.50
2022-10-04T12:31:13.858Z,17.50
2022-10-04T12:33:56.097Z,17.50
2022-10-04T12:36:41.520Z,17.50
2022-10-04T12:39:17.482Z,17.60
2022-10-04T12:41:55.920Z,17.60
2022-10-04T12:44:29.326Z,17.70
2022-10-04T12:46:56.388Z,17.70
2022-10-04T12:49:26.340Z,17.60
2022-10-04T12:51:58.169Z,17.70
2022-10-04T12:54:43.785Z,17.80
2022-10-04T12:57:26.866Z,18.60
2022-10-04T13:00:12.529Z,20.60
2022-10-04T13:02:45.870Z,22.90
2022-10-04T13:05:31.114Z,25.00
2022-10-04T13:08:03.984Z,26.70
2022-10-04T13:10:51.041Z,28.00
2022-10-04T13:13:24.162Z,28.90
2022-10-04T13:19:22.435Z,30.20
2022-10-04T13:22:01.528Z,30.50
2022-10-04T13:24:55.206Z,30.50
2022-10-04T13:27:29.351Z,30.40
2022-10-04T13:30:05.641Z,30.10
2022-10-04T13:32:45.553Z,29.80
2022-10-04T13:35:23.797Z,29.60
2022-10-04T13:37:57.907Z,29.20
2022-10-04T13:40:34.012Z,28.70
2022-10-04T13:43:16.245Z,28.30
2022-10-04T13:45:58.994Z,28.00
2022-10-04T13:48:29.561Z,27.60
2022-10-04T13:51:00.182Z,27.20
2022-10-04T13:53:45.653Z,26.80
2022-10-04T13:56:37.522Z,26.50
2022-10-04T13:59:16.704Z,26.10
2022-10-04T14:01:53.228Z,25.70
2022-10-04T14:04:20.031Z,25.30
2022-10-04T14:06:52.880Z,24.90
2022-10-04T14:09:22.620Z,24.70
2022-10-04T14:11:49.503Z,24.40
2022-10-04T14:14:33.231Z,24.10
2022-10-04T14:17:12.330Z,23.90
2022-10-04T14:19:58.028Z,23.60
2022-10-04T14:22:32.066Z,23.30
2022-10-04T14:25:02.141Z,23.00
2022-10-04T14:27:47.423Z,22.80
2022-10-04T14:30:17.382Z,22.60
2022-10-04T14:33:02.520Z,22.40
2022-10-04T14:35:41.583Z,22.20
2022-10-04T14:38:29.248Z,22.00
2022-10-04T14:41:10.627Z,21.90
2022-10-04T14:43:43.645Z,21.70
2022-10-04T14:46:16.873Z,21.60
2022-10-04T14:48:49.815Z,21.60
2022-10-04T14:51:32.308Z,21.70
2022-10-04T14:54:02.198Z,21.80
2022-10-04T14:56:28.971Z,22.20
2022-10-04T14:59:07.993Z,22.80
2022-10-04T15:01:38.533Z,23.70
2022-10-04T15:04:11.334Z,24.90
2022-10-04T15:06:39.975Z,26.00
2022-10-04T15:09:25.243Z,26.90
2022-10-04T15:12:25.582Z,27.60
2022-10-04T15:14:59.585Z,28.30
2022-10-04T15:17:27.629Z,28.90
2022-10-04T15:19:58.096Z,29.30
2022-10-04T15:22:27.344Z,29.70
2022-10-04T15:24:54.666Z,30.00
2022-10-04T15:27:42.944Z,30.20
2022-10-04T15:30:30.895Z,30.30
2022-10-04T15:33:17.167Z,30.30
2022-10-04T15:35:47.529Z,30.10
2022-10-04T15:38:17.370Z,29.70
2022-10-04T15:41:03.369Z,29.20
2022-10-04T15:43:31.848Z,28.80
2022-10-04T15:46:07.836Z,28.50
2022-10-04T15:48:39.785Z,28.20
2022-10-04T15:51:12.037Z,27.90
2022-10-04T15:53:54.220Z,27.60
2022-10-04T15:56:37.625Z,27.30
2022-10-04T15:59:23.289Z,27.00
2022-10-04T16:01:58.222Z,26.60
2022-10-04T16:04:41.736Z,26.00
2022-10-04T16:07:08.528Z,25.50
2022-10-04T16:09:41.514Z,24.90
2022-10-04T16:12:25.639Z,24.40
2022-10-04T16:15:14.010Z,23.90
2022-10-04T16:17:49.683Z,23.50
2022-10-04T16:20:20.096Z,23.00
2022-10-04T16:23:05.634Z,22.60
2022-10-04T16:25:37.733Z,22.20
2022-10-04T16:28:08.825Z,21.90
2022-10-04T16:30:37.059Z,21.60
2022-10-04T16:33:22.308Z,21.30
2022-10-04T16:36:10.316Z,21.00
2022-10-04T16:39:04.288Z,20.70
2022-10-04T16:41:35.600Z,20.50
2022-10-04T16:44:03.873Z,20.20
2022-10-04T16:46:35.715Z,20.00
2022-10-04T16:49:04.246Z,19.70
2022-10-04T16:51:37.688Z,19.50
2022-10-04T16:54:04.800Z,19.40
2022-10-04T16:56:34.679Z,19.30
2022-10-04T16:59:01.539Z,19.10
2022-10-04T17:01:29.764Z,19.00
2022-10-04T17:03:59.951Z,18.80
2022-10-04T17:06:31.215Z,18.70
2022-10-04T17:09:21.328Z,18.60
2022-10-04T17:12:00.786Z,18.40
2022-10-04T17:14:31.568Z,18.30
2022-10-04T17:17:01.129Z,18.10
2022-10-04T17:19:45.544Z,18.00
2022-10-04T17:22:20.439Z,18.00
2022-10-04T17:24:54.748Z,17.90
2022-10-04T17:27:48.664Z,17.80
2022-10-04T17:30:19.365Z,17.70
2022-10-04T17:32:55.294Z,17.60
2022-10-04T17:35:37.381Z,17.50
2022-10-04T17:38:20.862Z,17.40
2022-10-04T17:41:03.294Z,17.30
2022-10-04T17:43:30.365Z,17.30
2022-10-04T17:45:57.399Z,17.20
2022-10-04T17:48:45.019Z,17.20
2022-10-04T17:51:36.663Z,17.10
2022-10-04T17:54:28.187Z,17.10
2022-10-04T17:57:04.172Z,17.00
2022-10-04T17:59:46.223Z,17.00
2022-10-04T18:02:28.571Z,16.90
2022-10-04T18:05:00.899Z,16.80
2022-10-04T18:07:32.367Z,16.80
2022-10-04T18:10:02.284Z,16.70
2022-10-04T18:12:31.885Z,16.70
2022-10-04T18:15:02.501Z,16.60
2022-10-04T18:17:33.072Z,16.60
2022-10-04T18:20:08.226Z,16.50
2022-10-04T18:22:58.229Z,16.40
2022-10-04T18:25:27.064Z,16.30
2022-10-04T18:28:00.091Z,16.30
2022-10-04T18:30:27.443Z,16.20
2022-10-04T18:33:50.998Z,16.20
2022-10-04T18:36:31.249Z,16.20
2022-10-04T18:39:16.920Z,16.10
2022-10-04T18:41:54.172Z,16.20
2022-10-04T18:44:23.812Z,16.00
2022-10-04T18:46:55.357Z,16.00
2022-10-04T18:49:27.000Z,16.00
2022-10-04T18:52:13.303Z,16.00
2022-10-04T18:54:52.469Z,16.00
2022-10-04T18:57:25.558Z,15.90
2022-10-04T19:00:14.252Z,15.80
2022-10-04T19:02:48.329Z,15.80
2022-10-04T19:05:34.017Z,15.70
2022-10-04T19:08:29.117Z,15.70
2022-10-04T19:11:12.272Z,15.70
2022-10-04T19:13:49.159Z,15.60
2022-10-04T19:16:24.807Z,15.60
2022-10-04T19:19:10.490Z,15.50
2022-10-04T19:21:43.344Z,15.50
2022-10-04T19:24:10.358Z,15.50
2022-10-04T19:26:39.539Z,15.50
2022-10-04T19:29:06.694Z,15.40
2022-10-04T19:31:38.337Z,15.40
2022-10-04T19:34:11.091Z,15.40
2022-10-04T19:36:54.246Z,15.30
2022-10-04T19:39:34.557Z,15.30
2022-10-04T19:42:40.082Z,15.20
2022-10-04T19:45:06.950Z,15.20
2022-10-04T19:47:44.342Z,15.10
2022-10-04T19:50:31.343Z,15.10
2022-10-04T19:52:59.646Z,15.10
2022-10-04T19:55:54.119Z,15.00
2022-10-04T19:58:24.899Z,15.00
2022-10-04T20:00:51.973Z,14.90
2022-10-04T20:03:19.102Z,14.90
2022-10-04T20:05:47.572Z,14.80
2022-10-04T20:15:37.822Z,14.70
2022-10-04T20:22:10.127Z,14.70
2022-10-04T20:24:36.994Z,14.60
2022-10-04T20:27:09.146Z,14.60
2022-10-04T20:29:39.003Z,14.50
2022-10-04T20:32:24.609Z,14.50
2022-10-04T20:34:51.486Z,14.50
2022-10-04T20:37:19.279Z,14.50
2022-10-04T20:39:46.196Z,14.50
2022-10-04T20:42:26.391Z,14.40
2022-10-04T20:45:20.261Z,14.40
2022-10-04T20:47:54.964Z,14.40
2022-10-04T20:50:26.864Z,14.30
2022-10-04T20:52:55.799Z,14.30
2022-10-04T20:55:28.694Z,14.30
2022-10-04T20:57:56.570Z,14.20
2022-10-04T21:00:26.005Z,14.20
2022-10-04T21:03:10.113Z,14.10
2022-10-04T21:05:37.183Z,14.10
2022-10-04T21:08:19.283Z,14.10
2022-10-04T21:11:04.599Z,14.10
2022-10-04T21:13:57.891Z,14.00
2022-10-04T21:16:38.928Z,14.00
2022-10-04T21:19:24.689Z,14.00
2022-10-04T21:21:51.688Z,13.90
2022-10-04T21:24:37.578Z,13.90
2022-10-04T21:27:11.832Z,13.90
2022-10-04T21:29:39.823Z,13.80
2022-10-04T21:32:06.740Z,13.80
2022-10-04T21:34:53.531Z,13.80
2022-10-04T21:37:20.672Z,13.70
2022-10-04T21:39:47.588Z,13.70
2022-10-04T21:42:14.460Z,13.70
2022-10-04T21:44:41.314Z,13.60
2022-10-04T21:47:08.351Z,13.60
2022-10-04T21:49:35.454Z,13.60
2022-10-04T21:52:02.388Z,13.60
2022-10-04T21:54:29.371Z,13.60
2022-10-04T21:56:56.288Z,13.50
2022-10-04T21:59:23.130Z,13.50
2022-10-04T22:01:50.118Z,13.50
2022-10-04T22:04:16.959Z,13.40
2022-10-04T22:06:44.220Z,13.40
2022-10-04T22:09:11.534Z,13.40
2022-10-04T22:11:38.495Z,13.30
2022-10-04T22:14:05.420Z,13.40
2022-10-04T22:16:32.378Z,13.30
2022-10-04T22:18:59.299Z,13.30
2022-10-04T22:21:26.110Z,13.30
2022-10-04T22:23:52.926Z,13.20
2022-10-04T22:26:20.986Z,13.30
2022-10-04T22:28:49.237Z,13.20
2022-10-04T22:31:17.492Z,13.20
2022-10-04T22:33:45.522Z,13.10
2022-10-04T22:36:17.718Z,13.10
2022-10-04T22:38:45.957Z,13.10
2022-10-04T22:41:13.274Z,13.10
2022-10-04T22:43:40.154Z,13.10
2022-10-04T22:46:12.265Z,13.10
2022-10-04T22:48:39.237Z,13.10
2022-10-04T22:51:07.954Z,13.20
2022-10-04T22:53:34.800Z,13.10
2022-10-04T22:56:01.693Z,13.20
2022-10-04T22:58:28.496Z,13.20
2022-10-04T23:00:55.351Z,13.10
2022-10-04T23:03:28.931Z,13.10
2022-10-04T23:05:55.783Z,13.10
2022-10-04T23:08:22.689Z,13.00
2022-10-04T23:10:52.971Z,13.00
2022-10-04T23:13:24.570Z,13.00
2022-10-04T23:15:51.980Z,13.00
2022-10-04T23:18:19.275Z,12.90
2022-10-04T23:20:51.545Z,12.90
2022-10-04T23:23:21.600Z,12.90
2022-10-04T23:25:48.719Z,12.90
2022-10-04T23:28:16.803Z,12.80
2022-10-04T23:30:45.535Z,12.80
2022-10-04T23:33:21.131Z,12.80
2022-10-04T23:35:49.294Z,12.80
2022-10-04T23:38:17.321Z,12.80
2022-10-04T23:40:46.485Z,12.70
2022-10-04T23:43:15.784Z,12.70
2022-10-04T23:45:44.521Z,12.70
2022-10-04T23:48:12.871Z,12.70
2022-10-04T23:50:40.630Z,12.70
2022-10-04T23:53:12.314Z,12.60
2022-10-04T23:55:41.863Z,12.60
2022-10-04T23:58:13.800Z,12.60
